sensor_id;sensor_type;location;lat;lon;timestamp;temperature;humidity
6538;DHT22;3302;52.508;13.454;2024-02-16T00:00:25;10.30;99.90
6538;DHT22;3302;52.508;13.454;2024-02-16T00:02:51;10.30;99.90
6538;DHT22;3302;52.508;13.454;2024-02-16T00:05:17;10.30;99.90
6538;DHT22;3302;52.508;13.454;2024-02-16T00:07:43;10.30;99.90
6538;DHT22;3302;52.508;13.454;2024-02-16T00:10:09;10.20;99.90
6538;DHT22;3302;52.508;13.454;2024-02-16T00:12:35;10.20;99.90
6538;DHT22;3302;52.508;13.454;2024-02-16T00:15:02;10.20;99.90
6538;DHT22;3302;52.508;13.454;2024-02-16T00:17:28;10.20;99.90
6538;DHT22;3302;52.508;13.454;2024-02-16T00:19:58;10.10;99.90
6538;DHT22;3302;52.508;13.454;2024-02-16T00:22:24;10.10;99.90
6538;DHT22;3302;52.508;13.454;2024-02-16T00:24:50;10.10;99.90
6538;DHT22;3302;52.508;13.454;2024-02-16T00:27:16;10.10;99.90
6538;DHT22;3302;52.508;13.454;2024-02-16T00:29:42;10.10;99.90
6538;DHT22;3302;52.508;13.454;2024-02-16T00:32:08;10.10;99.90
6538;DHT22;3302;52.508;13.454;2024-02-16T00:34:35;10.10;99.90
6538;DHT22;3302;52.508;13.454;2024-02-16T00:37:02;10.00;99.90
6538;DHT22;3302;52.508;13.454;2024-02-16T00:39:27;10.00;99.90
6538;DHT22;3302;52.508;13.454;2024-02-16T00:41:53;9.90;99.90
6538;DHT22;3302;52.508;13.454;2024-02-16T00:44:19;9.90;99.90
6538;DHT22;3302;52.508;13.454;2024-02-16T00:46:45;9.90;99.90
6538;DHT22;3302;52.508;13.454;2024-02-16T00:49:11;9.90;99.90
6538;DHT22;3302;52.508;13.454;2024-02-16T00:51:37;9.90;99.90
6538;DHT22;3302;52.508;13.454;2024-02-16T00:54:03;9.90;99.90
6538;DHT22;3302;52.508;13.454;2024-02-16T00:56:30;9.80;99.90
6538;DHT22;3302;52.508;13.454;2024-02-16T00:58:56;9.80;99.90
6538;DHT22;3302;52.508;13.454;2024-02-16T01:01:22;9.80;99.90
6538;DHT22;3302;52.508;13.454;2024-02-16T01:03:48;9.80;99.90
6538;DHT22;3302;52.508;13.454;2024-02-16T01:06:15;9.80;99.90
6538;DHT22;3302;52.508;13.454;2024-02-16T01:08:41;9.80;99.90
6538;DHT22;3302;52.508;13.454;2024-02-16T01:11:06;9.80;99.90
6538;DHT22;3302;52.508;13.454;2024-02-16T01:13:33;9.80;99.90
6538;DHT22;3302;52.508;13.454;2024-02-16T01:15:59;9.70;99.90
6538;DHT22;3302;52.508;13.454;2024-02-16T01:18:27;9.70;99.90
6538;DHT22;3302;52.508;13.454;2024-02-16T01:20:53;9.70;99.90
6538;DHT22;3302;52.508;13.454;2024-02-16T01:23:20;9.70;99.90
6538;DHT22;3302;52.508;13.454;2024-02-16T01:25:46;9.70;99.90
6538;DHT22;3302;52.508;13.454;2024-02-16T01:28:12;9.70;99.90
6538;DHT22;3302;52.508;13.454;2024-02-16T01:30:39;9.70;99.90
6538;DHT22;3302;52.508;13.454;2024-02-16T01:33:05;9.60;99.90
6538;DHT22;3302;52.508;13.454;2024-02-16T01:35:33;9.60;99.90
6538;DHT22;3302;52.508;13.454;2024-02-16T01:37:59;9.60;99.90
6538;DHT22;3302;52.508;13.454;2024-02-16T01:40:25;9.60;99.90
6538;DHT22;3302;52.508;13.454;2024-02-16T01:42:52;9.60;99.90
6538;DHT22;3302;52.508;13.454;2024-02-16T01:45:21;9.60;99.90
6538;DHT22;3302;52.508;13.454;2024-02-16T01:47:51;9.50;99.90
6538;DHT22;3302;52.508;13.454;2024-02-16T01:50:18;9.60;99.90
6538;DHT22;3302;52.508;13.454;2024-02-16T01:52:46;9.60;99.90
6538;DHT22;3302;52.508;13.454;2024-02-16T01:55:13;9.60;99.90
6538;DHT22;3302;52.508;13.454;2024-02-16T01:57:40;9.50;99.90
6538;DHT22;3302;52.508;13.454;2024-02-16T02:00:08;9.50;99.90
6538;DHT22;3302;52.508;13.454;2024-02-16T02:02:35;9.50;99.90
6538;DHT22;3302;52.508;13.454;2024-02-16T02:05:01;9.50;99.90
6538;DHT22;3302;52.508;13.454;2024-02-16T02:07:27;9.50;99.90
6538;DHT22;3302;52.508;13.454;2024-02-16T02:09:53;9.40;99.90
6538;DHT22;3302;52.508;13.454;2024-02-16T02:12:19;9.40;99.90
6538;DHT22;3302;52.508;13.454;2024-02-16T02:14:45;9.40;99.90
6538;DHT22;3302;52.508;13.454;2024-02-16T02:17:12;9.40;99.90
6538;DHT22;3302;52.508;13.454;2024-02-16T02:19:38;9.30;99.90
6538;DHT22;3302;52.508;13.454;2024-02-16T02:22:04;9.40;99.90
6538;DHT22;3302;52.508;13.454;2024-02-16T02:24:30;9.30;99.90
6538;DHT22;3302;52.508;13.454;2024-02-16T02:26:56;9.30;99.90
6538;DHT22;3302;52.508;13.454;2024-02-16T02:29:23;9.30;99.90
6538;DHT22;3302;52.508;13.454;2024-02-16T02:31:49;9.30;99.90
6538;DHT22;3302;52.508;13.454;2024-02-16T02:34:14;9.30;99.90
6538;DHT22;3302;52.508;13.454;2024-02-16T02:36:40;9.20;99.90
6538;DHT22;3302;52.508;13.454;2024-02-16T02:39:06;9.20;99.90
6538;DHT22;3302;52.508;13.454;2024-02-16T02:41:32;9.20;99.90
6538;DHT22;3302;52.508;13.454;2024-02-16T02:43:58;9.20;99.90
6538;DHT22;3302;52.508;13.454;2024-02-16T02:46:24;9.20;99.90
6538;DHT22;3302;52.508;13.454;2024-02-16T02:48:50;9.20;99.90
6538;DHT22;3302;52.508;13.454;2024-02-16T02:51:17;9.20;99.90
6538;DHT22;3302;52.508;13.454;2024-02-16T02:53:42;9.20;99.90
6538;DHT22;3302;52.508;13.454;2024-02-16T02:56:09;9.20;99.90
6538;DHT22;3302;52.508;13.454;2024-02-16T02:58:35;9.20;99.90
6538;DHT22;3302;52.508;13.454;2024-02-16T03:01:00;9.20;99.90
6538;DHT22;3302;52.508;13.454;2024-02-16T03:03:26;9.10;99.90
6538;DHT22;3302;52.508;13.454;2024-02-16T03:05:52;9.20;99.90
6538;DHT22;3302;52.508;13.454;2024-02-16T03:08:18;9.10;99.90
6538;DHT22;3302;52.508;13.454;2024-02-16T03:10:43;9.10;99.90
6538;DHT22;3302;52.508;13.454;2024-02-16T03:13:10;9.10;99.90
6538;DHT22;3302;52.508;13.454;2024-02-16T03:15:38;9.10;99.90
6538;DHT22;3302;52.508;13.454;2024-02-16T03:18:07;9.20;99.90
6538;DHT22;3302;52.508;13.454;2024-02-16T03:20:34;9.20;99.90
6538;DHT22;3302;52.508;13.454;2024-02-16T03:23:01;9.20;99.90
6538;DHT22;3302;52.508;13.454;2024-02-16T03:25:29;9.20;99.90
6538;DHT22;3302;52.508;13.454;2024-02-16T03:27:55;9.20;99.90
6538;DHT22;3302;52.508;13.454;2024-02-16T03:30:21;9.20;99.90
6538;DHT22;3302;52.508;13.454;2024-02-16T03:32:50;9.20;99.90
6538;DHT22;3302;52.508;13.454;2024-02-16T03:35:16;9.20;99.90
6538;DHT22;3302;52.508;13.454;2024-02-16T03:37:42;9.20;99.90
6538;DHT22;3302;52.508;13.454;2024-02-16T03:40:08;9.20;99.90
6538;DHT22;3302;52.508;13.454;2024-02-16T03:42:39;9.20;99.90
6538;DHT22;3302;52.508;13.454;2024-02-16T03:45:07;9.10;99.90
6538;DHT22;3302;52.508;13.454;2024-02-16T03:47:33;9.20;99.90
6538;DHT22;3302;52.508;13.454;2024-02-16T03:49:59;9.10;99.90
6538;DHT22;3302;52.508;13.454;2024-02-16T03:52:24;9.10;99.90
6538;DHT22;3302;52.508;13.454;2024-02-16T03:54:50;9.10;99.90
6538;DHT22;3302;52.508;13.454;2024-02-16T03:57:17;9.10;99.90
6538;DHT22;3302;52.508;13.454;2024-02-16T03:59:43;9.10;99.90
6538;DHT22;3302;52.508;13.454;2024-02-16T04:02:10;9.10;99.90
6538;DHT22;3302;52.508;13.454;2024-02-16T04:04:36;9.10;99.90
6538;DHT22;3302;52.508;13.454;2024-02-16T04:07:02;9.00;99.90
6538;DHT22;3302;52.508;13.454;2024-02-16T04:09:28;9.10;99.90
6538;DHT22;3302;52.508;13.454;2024-02-16T04:11:53;9.10;99.90
6538;DHT22;3302;52.508;13.454;2024-02-16T04:14:19;9.00;99.90
6538;DHT22;3302;52.508;13.454;2024-02-16T04:16:45;9.00;99.90
6538;DHT22;3302;52.508;13.454;2024-02-16T04:19:11;9.00;99.90
6538;DHT22;3302;52.508;13.454;2024-02-16T04:21:36;9.00;99.90
6538;DHT22;3302;52.508;13.454;2024-02-16T04:24:02;9.00;99.90
6538;DHT22;3302;52.508;13.454;2024-02-16T04:26:29;9.00;99.90
6538;DHT22;3302;52.508;13.454;2024-02-16T04:28:54;9.00;99.90
6538;DHT22;3302;52.508;13.454;2024-02-16T04:31:20;9.00;99.90
6538;DHT22;3302;52.508;13.454;2024-02-16T04:33:46;9.00;99.90
6538;DHT22;3302;52.508;13.454;2024-02-16T04:36:12;9.00;99.90
6538;DHT22;3302;52.508;13.454;2024-02-16T04:38:37;9.00;99.90
6538;DHT22;3302;52.508;13.454;2024-02-16T04:41:06;9.00;99.90
6538;DHT22;3302;52.508;13.454;2024-02-16T04:43:33;9.00;99.90
6538;DHT22;3302;52.508;13.454;2024-02-16T04:46:00;9.00;99.90
6538;DHT22;3302;52.508;13.454;2024-02-16T04:48:26;9.00;99.90
6538;DHT22;3302;52.508;13.454;2024-02-16T04:50:52;9.00;99.90
6538;DHT22;3302;52.508;13.454;2024-02-16T04:53:17;9.00;99.90
6538;DHT22;3302;52.508;13.454;2024-02-16T04:55:43;9.00;99.90
6538;DHT22;3302;52.508;13.454;2024-02-16T04:58:09;9.00;99.90
6538;DHT22;3302;52.508;13.454;2024-02-16T05:00:38;9.00;99.90
6538;DHT22;3302;52.508;13.454;2024-02-16T05:03:04;9.00;99.90
6538;DHT22;3302;52.508;13.454;2024-02-16T05:05:30;9.00;99.90
6538;DHT22;3302;52.508;13.454;2024-02-16T05:07:56;8.90;99.90
6538;DHT22;3302;52.508;13.454;2024-02-16T05:10:22;8.90;99.90
6538;DHT22;3302;52.508;13.454;2024-02-16T05:12:48;8.90;99.90
6538;DHT22;3302;52.508;13.454;2024-02-16T05:15:14;8.90;99.90
6538;DHT22;3302;52.508;13.454;2024-02-16T05:17:41;8.90;99.90
6538;DHT22;3302;52.508;13.454;2024-02-16T05:20:12;8.90;99.90
6538;DHT22;3302;52.508;13.454;2024-02-16T05:22:45;8.90;99.90
6538;DHT22;3302;52.508;13.454;2024-02-16T05:25:15;8.90;99.90
6538;DHT22;3302;52.508;13.454;2024-02-16T05:27:41;9.00;99.90
6538;DHT22;3302;52.508;13.454;2024-02-16T05:30:09;9.00;99.90
6538;DHT22;3302;52.508;13.454;2024-02-16T05:32:36;9.00;99.90
6538;DHT22;3302;52.508;13.454;2024-02-16T05:35:06;9.00;99.90
6538;DHT22;3302;52.508;13.454;2024-02-16T05:37:46;9.00;99.90
6538;DHT22;3302;52.508;13.454;2024-02-16T05:40:17;9.00;99.90
6538;DHT22;3302;52.508;13.454;2024-02-16T05:42:55;9.00;99.90
6538;DHT22;3302;52.508;13.454;2024-02-16T05:45:24;8.90;99.90
6538;DHT22;3302;52.508;13.454;2024-02-16T05:47:52;8.90;99.90
6538;DHT22;3302;52.508;13.454;2024-02-16T05:50:20;9.00;99.90
6538;DHT22;3302;52.508;13.454;2024-02-16T05:52:47;9.00;99.90
6538;DHT22;3302;52.508;13.454;2024-02-16T05:55:12;9.00;99.90
6538;DHT22;3302;52.508;13.454;2024-02-16T05:57:39;8.90;99.90
6538;DHT22;3302;52.508;13.454;2024-02-16T06:00:06;8.90;99.90
6538;DHT22;3302;52.508;13.454;2024-02-16T06:02:32;9.00;99.90
6538;DHT22;3302;52.508;13.454;2024-02-16T06:05:03;9.00;99.90
6538;DHT22;3302;52.508;13.454;2024-02-16T06:07:29;9.00;99.90
6538;DHT22;3302;52.508;13.454;2024-02-16T06:09:55;9.00;99.90
6538;DHT22;3302;52.508;13.454;2024-02-16T06:12:21;9.00;99.90
6538;DHT22;3302;52.508;13.454;2024-02-16T06:14:47;9.00;99.90
6538;DHT22;3302;52.508;13.454;2024-02-16T06:17:16;9.00;99.90
6538;DHT22;3302;52.508;13.454;2024-02-16T06:19:43;8.90;99.90
6538;DHT22;3302;52.508;13.454;2024-02-16T06:22:09;8.90;99.90
6538;DHT22;3302;52.508;13.454;2024-02-16T06:24:36;9.00;99.90
6538;DHT22;3302;52.508;13.454;2024-02-16T06:27:02;8.90;99.90
6538;DHT22;3302;52.508;13.454;2024-02-16T06:29:29;8.90;99.90
6538;DHT22;3302;52.508;13.454;2024-02-16T06:31:56;8.90;99.90
6538;DHT22;3302;52.508;13.454;2024-02-16T06:34:22;8.90;99.90
6538;DHT22;3302;52.508;13.454;2024-02-16T06:36:48;8.90;99.90
6538;DHT22;3302;52.508;13.454;2024-02-16T06:39:16;8.90;99.90
6538;DHT22;3302;52.508;13.454;2024-02-16T06:41:45;8.90;99.90
6538;DHT22;3302;52.508;13.454;2024-02-16T06:44:12;8.90;99.90
6538;DHT22;3302;52.508;13.454;2024-02-16T06:46:38;8.90;99.90
6538;DHT22;3302;52.508;13.454;2024-02-16T06:49:04;8.90;99.90
6538;DHT22;3302;52.508;13.454;2024-02-16T06:51:30;8.90;99.90
6538;DHT22;3302;52.508;13.454;2024-02-16T06:53:56;8.90;99.90
6538;DHT22;3302;52.508;13.454;2024-02-16T06:56:22;8.90;99.90
6538;DHT22;3302;52.508;13.454;2024-02-16T06:58:47;8.90;99.90
6538;DHT22;3302;52.508;13.454;2024-02-16T07:01:14;8.90;99.90
6538;DHT22;3302;52.508;13.454;2024-02-16T07:03:40;8.90;99.90
6538;DHT22;3302;52.508;13.454;2024-02-16T07:06:06;8.90;99.90
6538;DHT22;3302;52.508;13.454;2024-02-16T07:08:39;9.00;99.90
6538;DHT22;3302;52.508;13.454;2024-02-16T07:11:05;8.90;99.90
6538;DHT22;3302;52.508;13.454;2024-02-16T07:13:32;8.90;99.90
6538;DHT22;3302;52.508;13.454;2024-02-16T07:15:58;8.90;99.90
6538;DHT22;3302;52.508;13.454;2024-02-16T07:18:24;9.00;99.90
6538;DHT22;3302;52.508;13.454;2024-02-16T07:20:50;9.00;99.90
6538;DHT22;3302;52.508;13.454;2024-02-16T07:23:16;9.00;99.90
6538;DHT22;3302;52.508;13.454;2024-02-16T07:25:43;9.00;99.90
6538;DHT22;3302;52.508;13.454;2024-02-16T07:28:09;9.00;99.90
6538;DHT22;3302;52.508;13.454;2024-02-16T07:30:35;9.00;99.90
6538;DHT22;3302;52.508;13.454;2024-02-16T07:33:06;9.10;99.90
6538;DHT22;3302;52.508;13.454;2024-02-16T07:35:36;9.10;99.90
6538;DHT22;3302;52.508;13.454;2024-02-16T07:38:04;9.20;99.90
6538;DHT22;3302;52.508;13.454;2024-02-16T07:40:30;9.20;99.90
6538;DHT22;3302;52.508;13.454;2024-02-16T07:42:57;9.20;99.90
6538;DHT22;3302;52.508;13.454;2024-02-16T07:45:23;9.30;99.90
6538;DHT22;3302;52.508;13.454;2024-02-16T07:47:51;9.30;99.90
6538;DHT22;3302;52.508;13.454;2024-02-16T07:50:20;9.30;99.90
6538;DHT22;3302;52.508;13.454;2024-02-16T07:52:47;9.30;99.90
6538;DHT22;3302;52.508;13.454;2024-02-16T07:55:13;9.40;99.90
6538;DHT22;3302;52.508;13.454;2024-02-16T07:57:39;9.40;99.90
6538;DHT22;3302;52.508;13.454;2024-02-16T08:00:06;9.50;99.90
6538;DHT22;3302;52.508;13.454;2024-02-16T08:02:32;9.60;99.90
6538;DHT22;3302;52.508;13.454;2024-02-16T08:04:58;9.60;99.90
6538;DHT22;3302;52.508;13.454;2024-02-16T08:07:24;9.70;99.90
6538;DHT22;3302;52.508;13.454;2024-02-16T08:09:50;9.80;99.90
6538;DHT22;3302;52.508;13.454;2024-02-16T08:12:16;9.90;99.90
6538;DHT22;3302;52.508;13.454;2024-02-16T08:14:42;10.00;99.90
6538;DHT22;3302;52.508;13.454;2024-02-16T08:17:09;10.00;99.90
6538;DHT22;3302;52.508;13.454;2024-02-16T08:19:36;10.10;99.90
6538;DHT22;3302;52.508;13.454;2024-02-16T08:22:03;10.10;99.90
6538;DHT22;3302;52.508;13.454;2024-02-16T08:24:34;10.20;99.90
6538;DHT22;3302;52.508;13.454;2024-02-16T08:27:00;10.20;99.90
6538;DHT22;3302;52.508;13.454;2024-02-16T08:29:25;10.20;99.90
6538;DHT22;3302;52.508;13.454;2024-02-16T08:31:52;10.30;99.90
6538;DHT22;3302;52.508;13.454;2024-02-16T08:34:18;10.40;99.90
6538;DHT22;3302;52.508;13.454;2024-02-16T08:36:48;10.40;99.90
6538;DHT22;3302;52.508;13.454;2024-02-16T08:39:14;10.60;99.90
6538;DHT22;3302;52.508;13.454;2024-02-16T08:41:40;10.60;99.90
6538;DHT22;3302;52.508;13.454;2024-02-16T08:44:07;10.70;99.90
6538;DHT22;3302;52.508;13.454;2024-02-16T08:46:36;10.80;99.90
6538;DHT22;3302;52.508;13.454;2024-02-16T08:49:02;10.80;99.90
6538;DHT22;3302;52.508;13.454;2024-02-16T08:51:29;10.80;99.90
6538;DHT22;3302;52.508;13.454;2024-02-16T08:53:55;10.70;99.90
6538;DHT22;3302;52.508;13.454;2024-02-16T08:56:21;10.70;99.90
6538;DHT22;3302;52.508;13.454;2024-02-16T08:58:46;10.70;99.90
6538;DHT22;3302;52.508;13.454;2024-02-16T09:01:12;10.80;99.90
6538;DHT22;3302;52.508;13.454;2024-02-16T09:03:38;10.90;99.90
6538;DHT22;3302;52.508;13.454;2024-02-16T09:06:06;10.90;99.90
6538;DHT22;3302;52.508;13.454;2024-02-16T09:08:32;10.90;99.90
6538;DHT22;3302;52.508;13.454;2024-02-16T09:11:03;10.90;99.90
6538;DHT22;3302;52.508;13.454;2024-02-16T09:13:33;11.00;99.90
6538;DHT22;3302;52.508;13.454;2024-02-16T09:15:59;11.00;99.90
6538;DHT22;3302;52.508;13.454;2024-02-16T09:18:25;10.90;99.90
6538;DHT22;3302;52.508;13.454;2024-02-16T09:20:51;11.00;99.90
6538;DHT22;3302;52.508;13.454;2024-02-16T09:23:17;11.00;99.90
6538;DHT22;3302;52.508;13.454;2024-02-16T09:25:43;11.00;99.90
6538;DHT22;3302;52.508;13.454;2024-02-16T09:28:11;11.00;99.90
6538;DHT22;3302;52.508;13.454;2024-02-16T09:30:38;11.10;99.90
6538;DHT22;3302;52.508;13.454;2024-02-16T09:33:04;11.10;99.90
6538;DHT22;3302;52.508;13.454;2024-02-16T09:35:31;11.20;99.90
6538;DHT22;3302;52.508;13.454;2024-02-16T09:37:56;11.30;99.90
6538;DHT22;3302;52.508;13.454;2024-02-16T09:40:22;11.30;99.90
6538;DHT22;3302;52.508;13.454;2024-02-16T09:42:49;11.40;99.90
6538;DHT22;3302;52.508;13.454;2024-02-16T09:45:15;11.60;99.90
6538;DHT22;3302;52.508;13.454;2024-02-16T09:47:43;11.70;99.90
6538;DHT22;3302;52.508;13.454;2024-02-16T09:50:10;11.70;99.90
6538;DHT22;3302;52.508;13.454;2024-02-16T09:52:36;11.80;99.90
6538;DHT22;3302;52.508;13.454;2024-02-16T09:55:03;11.80;99.90
6538;DHT22;3302;52.508;13.454;2024-02-16T09:57:32;11.90;99.90
6538;DHT22;3302;52.508;13.454;2024-02-16T09:59:58;11.90;99.90
6538;DHT22;3302;52.508;13.454;2024-02-16T10:02:24;12.00;99.90
6538;DHT22;3302;52.508;13.454;2024-02-16T10:04:50;12.10;99.90
6538;DHT22;3302;52.508;13.454;2024-02-16T10:07:16;12.10;99.90
6538;DHT22;3302;52.508;13.454;2024-02-16T10:09:42;12.20;99.90
6538;DHT22;3302;52.508;13.454;2024-02-16T10:12:08;12.30;99.90
6538;DHT22;3302;52.508;13.454;2024-02-16T10:14:33;12.30;99.90
6538;DHT22;3302;52.508;13.454;2024-02-16T10:17:04;12.30;99.90
6538;DHT22;3302;52.508;13.454;2024-02-16T10:19:30;12.40;99.90
6538;DHT22;3302;52.508;13.454;2024-02-16T10:22:12;12.40;99.90
6538;DHT22;3302;52.508;13.454;2024-02-16T10:24:38;12.40;99.90
6538;DHT22;3302;52.508;13.454;2024-02-16T10:27:14;12.40;99.90
6538;DHT22;3302;52.508;13.454;2024-02-16T10:29:43;12.40;99.90
6538;DHT22;3302;52.508;13.454;2024-02-16T10:32:11;12.40;99.90
6538;DHT22;3302;52.508;13.454;2024-02-16T10:34:38;12.40;99.90
6538;DHT22;3302;52.508;13.454;2024-02-16T10:37:06;12.50;99.90
6538;DHT22;3302;52.508;13.454;2024-02-16T10:39:32;12.50;99.90
6538;DHT22;3302;52.508;13.454;2024-02-16T10:42:00;12.60;99.90
6538;DHT22;3302;52.508;13.454;2024-02-16T10:44:28;12.60;99.90
6538;DHT22;3302;52.508;13.454;2024-02-16T10:46:55;12.60;99.90
6538;DHT22;3302;52.508;13.454;2024-02-16T10:49:24;12.60;99.90
6538;DHT22;3302;52.508;13.454;2024-02-16T10:51:54;12.70;99.90
6538;DHT22;3302;52.508;13.454;2024-02-16T10:54:25;12.70;99.90
6538;DHT22;3302;52.508;13.454;2024-02-16T10:56:53;12.70;99.90
6538;DHT22;3302;52.508;13.454;2024-02-16T10:59:20;12.70;99.90
6538;DHT22;3302;52.508;13.454;2024-02-16T11:01:46;12.80;99.90
6538;DHT22;3302;52.508;13.454;2024-02-16T11:04:16;12.80;99.90
6538;DHT22;3302;52.508;13.454;2024-02-16T11:06:52;12.80;99.90
6538;DHT22;3302;52.508;13.454;2024-02-16T11:09:28;12.80;99.90
6538;DHT22;3302;52.508;13.454;2024-02-16T11:11:58;12.80;99.90
6538;DHT22;3302;52.508;13.454;2024-02-16T11:14:24;12.90;99.90
6538;DHT22;3302;52.508;13.454;2024-02-16T11:16:59;13.00;99.90
6538;DHT22;3302;52.508;13.454;2024-02-16T11:19:25;13.00;99.90
6538;DHT22;3302;52.508;13.454;2024-02-16T11:22:03;13.00;99.90
6538;DHT22;3302;52.508;13.454;2024-02-16T11:24:33;13.10;99.90
6538;DHT22;3302;52.508;13.454;2024-02-16T11:27:02;13.20;99.90
6538;DHT22;3302;52.508;13.454;2024-02-16T11:29:32;13.10;99.90
6538;DHT22;3302;52.508;13.454;2024-02-16T11:31:58;13.20;99.90
6538;DHT22;3302;52.508;13.454;2024-02-16T11:34:25;13.20;99.90
6538;DHT22;3302;52.508;13.454;2024-02-16T11:36:53;13.30;99.90
6538;DHT22;3302;52.508;13.454;2024-02-16T11:39:20;13.30;99.90
6538;DHT22;3302;52.508;13.454;2024-02-16T11:41:46;13.40;99.90
6538;DHT22;3302;52.508;13.454;2024-02-16T11:44:13;13.40;99.90
6538;DHT22;3302;52.508;13.454;2024-02-16T11:46:42;13.50;99.90
6538;DHT22;3302;52.508;13.454;2024-02-16T11:49:08;13.60;99.90
6538;DHT22;3302;52.508;13.454;2024-02-16T11:51:34;13.70;99.90
6538;DHT22;3302;52.508;13.454;2024-02-16T11:54:00;13.80;99.90
6538;DHT22;3302;52.508;13.454;2024-02-16T11:56:26;13.90;99.90
6538;DHT22;3302;52.508;13.454;2024-02-16T11:58:53;14.10;99.90
6538;DHT22;3302;52.508;13.454;2024-02-16T12:01:19;14.30;99.90
6538;DHT22;3302;52.508;13.454;2024-02-16T12:03:47;14.40;99.90
6538;DHT22;3302;52.508;13.454;2024-02-16T12:06:20;14.60;99.90
6538;DHT22;3302;52.508;13.454;2024-02-16T12:08:47;14.70;99.90
6538;DHT22;3302;52.508;13.454;2024-02-16T12:11:13;14.90;99.90
6538;DHT22;3302;52.508;13.454;2024-02-16T12:13:40;14.90;99.90
6538;DHT22;3302;52.508;13.454;2024-02-16T12:16:06;15.00;99.90
6538;DHT22;3302;52.508;13.454;2024-02-16T12:18:32;15.00;99.90
6538;DHT22;3302;52.508;13.454;2024-02-16T12:21:02;15.10;99.90
6538;DHT22;3302;52.508;13.454;2024-02-16T12:23:29;15.00;99.90
6538;DHT22;3302;52.508;13.454;2024-02-16T12:26:01;15.00;99.90
6538;DHT22;3302;52.508;13.454;2024-02-16T12:28:29;15.00;99.90
6538;DHT22;3302;52.508;13.454;2024-02-16T12:30:56;15.00;99.90
6538;DHT22;3302;52.508;13.454;2024-02-16T12:33:22;14.90;99.90
6538;DHT22;3302;52.508;13.454;2024-02-16T12:35:48;14.90;99.90
6538;DHT22;3302;52.508;13.454;2024-02-16T12:38:14;14.90;99.90
6538;DHT22;3302;52.508;13.454;2024-02-16T12:40:43;14.80;99.90
6538;DHT22;3302;52.508;13.454;2024-02-16T12:43:09;14.80;99.90
6538;DHT22;3302;52.508;13.454;2024-02-16T12:45:37;14.90;99.90
6538;DHT22;3302;52.508;13.454;2024-02-16T12:48:03;15.00;99.90
6538;DHT22;3302;52.508;13.454;2024-02-16T12:50:32;15.00;99.80
6538;DHT22;3302;52.508;13.454;2024-02-16T12:52:58;15.10;99.80
6538;DHT22;3302;52.508;13.454;2024-02-16T12:55:25;15.10;99.80
6538;DHT22;3302;52.508;13.454;2024-02-16T12:57:51;15.10;99.80
6538;DHT22;3302;52.508;13.454;2024-02-16T13:00:17;15.20;99.90
6538;DHT22;3302;52.508;13.454;2024-02-16T13:02:43;15.30;99.80
6538;DHT22;3302;52.508;13.454;2024-02-16T13:05:09;15.20;99.90
6538;DHT22;3302;52.508;13.454;2024-02-16T13:07:37;15.20;99.90
6538;DHT22;3302;52.508;13.454;2024-02-16T13:10:05;15.20;99.90
6538;DHT22;3302;52.508;13.454;2024-02-16T13:12:31;15.20;99.90
6538;DHT22;3302;52.508;13.454;2024-02-16T13:14:58;15.20;99.90
6538;DHT22;3302;52.508;13.454;2024-02-16T13:17:24;15.20;99.90
6538;DHT22;3302;52.508;13.454;2024-02-16T13:19:49;15.30;99.90
6538;DHT22;3302;52.508;13.454;2024-02-16T13:22:15;15.20;99.90
6538;DHT22;3302;52.508;13.454;2024-02-16T13:24:41;15.20;99.90
6538;DHT22;3302;52.508;13.454;2024-02-16T13:27:07;15.30;99.90
6538;DHT22;3302;52.508;13.454;2024-02-16T13:29:35;15.20;99.90
6538;DHT22;3302;52.508;13.454;2024-02-16T13:32:01;15.20;99.90
6538;DHT22;3302;52.508;13.454;2024-02-16T13:34:27;15.20;99.90
6538;DHT22;3302;52.508;13.454;2024-02-16T13:36:53;15.30;99.90
6538;DHT22;3302;52.508;13.454;2024-02-16T13:39:19;15.30;99.90
6538;DHT22;3302;52.508;13.454;2024-02-16T13:41:48;15.30;99.90
6538;DHT22;3302;52.508;13.454;2024-02-16T13:44:17;15.40;99.90
6538;DHT22;3302;52.508;13.454;2024-02-16T13:46:45;15.40;99.90
6538;DHT22;3302;52.508;13.454;2024-02-16T13:49:13;15.40;99.90
6538;DHT22;3302;52.508;13.454;2024-02-16T13:51:40;15.30;99.90
6538;DHT22;3302;52.508;13.454;2024-02-16T13:54:06;15.20;99.90
6538;DHT22;3302;52.508;13.454;2024-02-16T13:56:32;15.20;99.90
6538;DHT22;3302;52.508;13.454;2024-02-16T13:58:58;15.20;99.90
6538;DHT22;3302;52.508;13.454;2024-02-16T14:01:24;15.20;99.80
6538;DHT22;3302;52.508;13.454;2024-02-16T14:03:50;15.10;99.90
6538;DHT22;3302;52.508;13.454;2024-02-16T14:06:16;15.00;99.90
6538;DHT22;3302;52.508;13.454;2024-02-16T14:08:42;15.00;99.90
6538;DHT22;3302;52.508;13.454;2024-02-16T14:11:08;15.00;99.90
6538;DHT22;3302;52.508;13.454;2024-02-16T14:13:35;15.00;99.90
6538;DHT22;3302;52.508;13.454;2024-02-16T14:16:01;15.00;99.90
6538;DHT22;3302;52.508;13.454;2024-02-16T14:18:27;15.00;99.90
6538;DHT22;3302;52.508;13.454;2024-02-16T14:20:53;15.00;99.90
6538;DHT22;3302;52.508;13.454;2024-02-16T14:23:18;14.90;99.90
6538;DHT22;3302;52.508;13.454;2024-02-16T14:25:44;14.90;99.90
6538;DHT22;3302;52.508;13.454;2024-02-16T14:28:11;14.90;99.90
6538;DHT22;3302;52.508;13.454;2024-02-16T14:30:37;14.90;99.90
6538;DHT22;3302;52.508;13.454;2024-02-16T14:33:03;15.00;99.90
6538;DHT22;3302;52.508;13.454;2024-02-16T14:35:30;14.90;99.90
6538;DHT22;3302;52.508;13.454;2024-02-16T14:37:58;14.90;99.90
6538;DHT22;3302;52.508;13.454;2024-02-16T14:40:24;14.90;99.90
6538;DHT22;3302;52.508;13.454;2024-02-16T14:42:51;14.90;99.90
6538;DHT22;3302;52.508;13.454;2024-02-16T14:45:17;14.90;99.90
6538;DHT22;3302;52.508;13.454;2024-02-16T14:47:49;14.80;99.90
6538;DHT22;3302;52.508;13.454;2024-02-16T14:50:16;14.80;99.90
6538;DHT22;3302;52.508;13.454;2024-02-16T14:52:42;14.90;99.90
6538;DHT22;3302;52.508;13.454;2024-02-16T14:55:08;15.00;99.90
6538;DHT22;3302;52.508;13.454;2024-02-16T14:57:42;15.10;99.90
6538;DHT22;3302;52.508;13.454;2024-02-16T15:00:10;15.00;99.90
6538;DHT22;3302;52.508;13.454;2024-02-16T15:02:37;15.00;99.90
6538;DHT22;3302;52.508;13.454;2024-02-16T15:05:07;15.00;99.90
6538;DHT22;3302;52.508;13.454;2024-02-16T15:07:33;14.90;99.90
6538;DHT22;3302;52.508;13.454;2024-02-16T15:09:59;15.00;99.90
6538;DHT22;3302;52.508;13.454;2024-02-16T15:12:25;14.90;99.90
6538;DHT22;3302;52.508;13.454;2024-02-16T15:14:51;14.90;99.90
6538;DHT22;3302;52.508;13.454;2024-02-16T15:17:17;14.90;99.90
6538;DHT22;3302;52.508;13.454;2024-02-16T15:19:44;14.90;99.90
6538;DHT22;3302;52.508;13.454;2024-02-16T15:22:10;14.90;99.90
6538;DHT22;3302;52.508;13.454;2024-02-16T15:24:35;14.80;99.90
6538;DHT22;3302;52.508;13.454;2024-02-16T15:27:01;14.70;99.90
6538;DHT22;3302;52.508;13.454;2024-02-16T15:29:29;14.70;99.90
6538;DHT22;3302;52.508;13.454;2024-02-16T15:31:55;14.80;99.90
6538;DHT22;3302;52.508;13.454;2024-02-16T15:34:24;14.70;99.90
6538;DHT22;3302;52.508;13.454;2024-02-16T15:36:50;14.70;99.90
6538;DHT22;3302;52.508;13.454;2024-02-16T15:39:16;14.80;99.90
6538;DHT22;3302;52.508;13.454;2024-02-16T15:41:42;14.70;99.90
6538;DHT22;3302;52.508;13.454;2024-02-16T15:44:08;14.70;99.90
6538;DHT22;3302;52.508;13.454;2024-02-16T15:46:36;14.70;99.90
6538;DHT22;3302;52.508;13.454;2024-02-16T15:49:03;14.70;99.90